Time;durP1;ratioP1;P1;durP2;ratioP2;P2;SDS_P1;SDS_P2;PMS_P1;PMS_P2;Temp;Humidity;BMP_temperature;BMP_pressure;BME280_temperature;BME280_humidity;BME280_pressure;Samples;Min_cycle;Max_cycle;Signal;HPM_P1;HPM_P2
2022/11/12 00:00:57;;;;;;;1999.90;999.90;;;6.00;99.90;;;;;;5008742;28;20045;-66
2022/11/12 00:03:24;;;;;;;1999.90;999.90;;;6.00;99.90;;;;;;4986437;28;20033;-66
2022/11/12 00:05:50;;;;;;;1999.90;999.90;;;6.00;99.90;;;;;;4990892;28;20045;-66
2022/11/12 00:08:17;;;;;;;1999.90;999.90;;;5.90;99.90;;;;;;4989069;28;20054;-66
2022/11/12 00:10:43;;;;;;;1999.90;999.90;;;5.90;99.90;;;;;;4990319;28;20089;-66
2022/11/12 00:13:09;;;;;;;1999.90;999.90;;;5.80;99.90;;;;;;4974729;28;20061;-66
2022/11/12 00:15:34;;;;;;;1999.90;999.90;;;5.80;99.90;;;;;;4986253;28;20470;-66
2022/11/12 00:18:00;;;;;;;1999.90;999.90;;;5.80;99.90;;;;;;5006603;28;20128;-66
2022/11/12 00:20:26;;;;;;;1999.90;999.90;;;5.80;99.90;;;;;;5008573;28;20048;-66
2022/11/12 00:22:51;;;;;;;1999.90;999.90;;;5.80;99.90;;;;;;4971129;28;20073;-66
2022/11/12 00:25:17;;;;;;;1999.90;999.90;;;5.80;99.90;;;;;;4987331;28;20038;-66
2022/11/12 00:27:42;;;;;;;1999.90;999.90;;;5.80;99.90;;;;;;4990280;28;20038;-66
2022/11/12 00:30:08;;;;;;;1999.90;999.90;;;5.80;99.90;;;;;;4999173;28;20038;-66
2022/11/12 00:32:37;;;;;;;1999.90;999.90;;;5.80;99.90;;;;;;4998655;28;20137;-66
2022/11/12 00:35:04;;;;;;;1999.90;999.90;;;5.90;99.90;;;;;;4990839;28;20042;-66
2022/11/12 00:37:29;;;;;;;1999.90;999.90;;;6.00;99.90;;;;;;4986681;28;20049;-66
2022/11/12 00:39:55;;;;;;;1999.90;999.90;;;6.00;99.90;;;;;;4989131;28;20042;-66
2022/11/12 00:42:20;;;;;;;1999.90;999.90;;;6.10;99.90;;;;;;4988610;28;20038;-66
2022/11/12 00:44:46;;;;;;;1999.90;999.90;;;6.10;99.90;;;;;;4981033;28;20046;-66
2022/11/12 00:47:11;;;;;;;1999.90;999.90;;;6.00;99.90;;;;;;5004928;28;20034;-66
2022/11/12 00:49:37;;;;;;;1999.90;999.90;;;6.00;99.90;;;;;;5008309;28;20046;-66
2022/11/12 00:52:03;;;;;;;1999.90;999.90;;;6.00;99.90;;;;;;4990850;28;20049;-66
2022/11/12 00:54:28;;;;;;;1999.90;999.90;;;6.00;99.90;;;;;;4999953;28;20034;-66
2022/11/12 00:56:54;;;;;;;1999.90;999.90;;;6.00;99.90;;;;;;4983845;28;20125;-66
2022/11/12 00:59:19;;;;;;;1999.90;999.90;;;6.00;99.90;;;;;;4988348;28;20049;-66
2022/11/12 01:01:45;;;;;;;1999.90;999.90;;;6.00;99.90;;;;;;4996745;28;20089;-66
2022/11/12 01:04:10;;;;;;;1999.90;999.90;;;6.00;99.90;;;;;;4990205;28;20049;-66
2022/11/12 01:06:39;;;;;;;1999.90;999.90;;;5.90;99.90;;;;;;4990388;28;20046;-66
2022/11/12 01:09:06;;;;;;;1999.90;999.90;;;5.90;99.90;;;;;;5006075;28;20108;-66
2022/11/12 01:11:31;;;;;;;1999.90;999.90;;;5.90;99.90;;;;;;4988536;28;20054;-66
2022/11/12 01:14:00;;;;;;;1999.90;999.90;;;6.00;99.90;;;;;;4986736;28;20407;-66
2022/11/12 01:16:29;;;;;;;1999.90;999.90;;;5.90;99.90;;;;;;4988023;28;20425;-66
2022/11/12 01:18:57;;;;;;;1999.90;999.90;;;5.90;99.90;;;;;;4990675;28;20462;-66
2022/11/12 01:21:24;;;;;;;1999.90;999.90;;;5.90;99.90;;;;;;4989695;28;20038;-66
2022/11/12 01:23:50;;;;;;;1999.90;999.90;;;6.00;99.90;;;;;;4989715;28;20379;-66
2022/11/12 01:26:18;;;;;;;1999.90;999.90;;;6.10;99.90;;;;;;4982060;28;20049;-66
2022/11/12 01:28:44;;;;;;;1999.90;999.90;;;6.10;99.90;;;;;;4996380;28;20774;-66
2022/11/12 01:31:16;;;;;;;1999.90;999.90;;;6.10;99.90;;;;;;4989698;28;20046;-66
2022/11/12 01:33:43;;;;;;;1999.90;999.90;;;6.10;99.90;;;;;;4966454;28;20050;-66
2022/11/12 01:36:09;;;;;;;1999.90;999.90;;;6.10;99.90;;;;;;5007749;28;20038;-66
2022/11/12 01:38:36;;;;;;;1999.90;999.90;;;6.00;99.90;;;;;;4980167;28;20545;-66
2022/11/12 01:41:03;;;;;;;1999.90;999.90;;;6.00;99.90;;;;;;4989223;28;20490;-66
2022/11/12 01:43:28;;;;;;;1999.90;999.90;;;6.00;99.90;;;;;;5006897;28;20040;-66
2022/11/12 01:45:55;;;;;;;1999.90;999.90;;;6.00;99.90;;;;;;4989620;28;20038;-66
2022/11/12 01:48:25;;;;;;;1999.90;999.90;;;6.00;99.90;;;;;;4990066;28;20053;-66
2022/11/12 01:50:52;;;;;;;1999.90;999.90;;;6.00;99.90;;;;;;5000776;28;20081;-66
2022/11/12 01:53:20;;;;;;;1999.90;999.90;;;6.00;99.90;;;;;;5006605;28;20041;-66
2022/11/12 01:55:46;;;;;;;1999.90;999.90;;;5.90;99.90;;;;;;4989768;28;20091;-66
2022/11/12 01:58:18;;;;;;;1999.90;999.90;;;5.90;99.90;;;;;;4999265;28;20045;-66
2022/11/12 02:00:44;;;;;;;1999.90;999.90;;;5.90;99.90;;;;;;4989130;28;20050;-67
2022/11/12 02:03:14;;;;;;;1999.90;999.90;;;5.90;99.90;;;;;;4973318;28;20065;-66
2022/11/12 02:05:41;;;;;;;1999.90;999.90;;;5.80;99.90;;;;;;4956543;28;20517;-66
2022/11/12 02:08:09;;;;;;;1999.90;999.90;;;5.80;99.90;;;;;;4988436;28;20054;-66
2022/11/12 02:10:38;;;;;;;1999.90;999.90;;;5.70;99.90;;;;;;4970324;28;20053;-66
2022/11/12 02:15:47;;;;;;;1999.90;999.90;;;5.70;99.90;;;;;;5003886;28;20731;-66
2022/11/12 02:18:14;;;;;;;1999.90;999.90;;;5.70;99.90;;;;;;5005267;28;20053;-67
2022/11/12 02:20:39;;;;;;;1999.90;999.90;;;5.60;99.90;;;;;;4973056;28;20386;-66
2022/11/12 02:23:06;;;;;;;1999.90;999.90;;;5.60;99.90;;;;;;5008151;28;20168;-66
2022/11/12 02:25:33;;;;;;;1999.90;999.90;;;5.50;99.90;;;;;;5003162;28;20120;-67
2022/11/12 02:28:00;;;;;;;1999.90;999.90;;;5.60;99.90;;;;;;4989976;28;20073;-66
2022/11/12 02:30:41;;;;;;;1999.90;999.90;;;5.60;99.90;;;;;;5003701;28;20061;-66
2022/11/12 02:33:07;;;;;;;1999.90;999.90;;;5.60;99.90;;;;;;4991659;28;20033;-66
2022/11/12 02:35:33;;;;;;;1999.90;999.90;;;5.60;99.90;;;;;;5010238;28;20052;-66
2022/11/12 02:37:58;;;;;;;1999.90;999.90;;;5.60;99.90;;;;;;4991806;28;20042;-66
2022/11/12 02:40:24;;;;;;;1999.90;999.90;;;5.60;99.90;;;;;;4992576;28;20050;-66
2022/11/12 02:42:50;;;;;;;1999.90;999.90;;;5.60;99.90;;;;;;5010362;28;20088;-66
2022/11/12 02:45:17;;;;;;;1999.90;999.90;;;5.60;99.90;;;;;;4992031;28;20416;-66
2022/11/12 02:47:43;;;;;;;1999.90;999.90;;;5.60;99.90;;;;;;4992578;28;20088;-67
2022/11/12 02:50:09;;;;;;;1999.90;999.90;;;5.60;99.90;;;;;;5008685;28;20049;-67
2022/11/12 02:52:35;;;;;;;1999.90;999.90;;;5.60;99.90;;;;;;4990642;28;20060;-66
2022/11/12 02:55:01;;;;;;;1999.90;999.90;;;5.50;99.90;;;;;;5005421;28;20057;-66
2022/11/12 02:57:29;;;;;;;1999.90;999.90;;;5.40;99.90;;;;;;4989836;28;20045;-66
2022/11/12 02:59:54;;;;;;;1999.90;999.90;;;5.30;99.90;;;;;;4989370;28;20041;-66
2022/11/12 03:02:20;;;;;;;1999.90;999.90;;;5.20;99.90;;;;;;4985690;28;20041;-66
2022/11/12 03:04:45;;;;;;;1999.90;999.90;;;5.20;99.90;;;;;;4989563;28;20144;-66
2022/11/12 03:07:11;;;;;;;1999.90;999.90;;;5.10;99.90;;;;;;5004441;28;20033;-66
2022/11/12 03:09:37;;;;;;;1999.90;999.90;;;5.10;99.90;;;;;;4991154;28;20494;-66
2022/11/12 03:12:02;;;;;;;1999.90;999.90;;;5.00;99.90;;;;;;4987119;28;20085;-66
2022/11/12 03:14:28;;;;;;;1999.90;999.90;;;4.90;99.90;;;;;;5007885;28;20046;-66
2022/11/12 03:16:53;;;;;;;1999.90;999.90;;;4.90;99.90;;;;;;4991661;28;20080;-66
2022/11/12 03:19:19;;;;;;;1999.90;999.90;;;4.90;99.90;;;;;;5009271;28;20092;-66
2022/11/12 03:21:44;;;;;;;1999.90;999.90;;;5.00;99.90;;;;;;4992385;28;20065;-66
2022/11/12 03:24:10;;;;;;;1999.90;999.90;;;5.00;99.90;;;;;;5005373;28;20038;-66
2022/11/12 03:26:35;;;;;;;1999.90;999.90;;;5.10;99.90;;;;;;5004700;28;20108;-66
2022/11/12 03:29:01;;;;;;;1999.90;999.90;;;5.00;99.90;;;;;;4976451;28;20383;-66
2022/11/12 03:31:27;;;;;;;1999.90;999.90;;;5.10;99.90;;;;;;5001049;28;20045;-66
2022/11/12 03:33:52;;;;;;;1999.90;999.90;;;5.00;99.90;;;;;;5005913;28;20045;-66
2022/11/12 03:36:18;;;;;;;1999.90;999.90;;;5.00;99.90;;;;;;4991627;28;20552;-66
2022/11/12 03:38:43;;;;;;;1999.90;999.90;;;5.00;99.90;;;;;;4988254;28;20517;-66
2022/11/12 03:41:09;;;;;;;1999.90;999.90;;;4.90;99.90;;;;;;5010071;28;20163;-66
2022/11/12 03:43:35;;;;;;;1999.90;999.90;;;4.90;99.90;;;;;;4983252;28;20046;-67
2022/11/12 03:46:00;;;;;;;1999.90;999.90;;;4.80;99.90;;;;;;4969753;28;20054;-66
2022/11/12 03:48:26;;;;;;;1999.90;999.90;;;4.80;99.90;;;;;;4960829;28;20038;-66
2022/11/12 03:50:56;;;;;;;1999.90;999.90;;;4.80;99.90;;;;;;4963961;28;20081;-66
2022/11/12 03:53:21;;;;;;;1999.90;999.90;;;4.70;99.90;;;;;;4989547;28;20046;-67
2022/11/12 03:55:47;;;;;;;1999.90;999.90;;;4.70;99.90;;;;;;4971995;28;20509;-66
2022/11/12 03:58:12;;;;;;;1999.90;999.90;;;4.70;99.90;;;;;;4991540;28;20041;-66
2022/11/12 04:00:38;;;;;;;1999.90;999.90;;;4.60;99.90;;;;;;4984566;28;20034;-66
2022/11/12 04:03:03;;;;;;;1999.90;999.90;;;4.60;99.90;;;;;;4990534;28;20484;-67
2022/11/12 04:11:05;;;;;;;1999.90;999.90;;;4.60;99.90;;;;;;5005678;28;20043;-66
2022/11/12 04:13:31;;;;;;;1999.90;999.90;;;4.60;99.90;;;;;;4973883;28;20411;-66
2022/11/12 04:21:55;;;;;;;1999.90;999.90;;;4.60;99.90;;;;;;5000918;28;20410;-67
2022/11/12 04:27:14;;;;;;;1999.90;999.90;;;4.50;99.90;;;;;;4991391;28;20050;-66
2022/11/12 04:32:25;;;;;;;1999.90;999.90;;;4.50;99.90;;;;;;5008216;28;20120;-66
2022/11/12 04:34:51;;;;;;;1999.90;999.90;;;4.40;99.90;;;;;;4987719;28;20041;-66
2022/11/12 04:37:17;;;;;;;1999.90;999.90;;;4.30;99.90;;;;;;4961849;28;20390;-66
2022/11/12 04:39:43;;;;;;;1999.90;999.90;;;4.20;99.90;;;;;;4990578;28;20056;-66
2022/11/12 04:45:00;;;;;;;1999.90;999.90;;;4.20;99.90;;;;;;5008531;28;20383;-66
2022/11/12 04:47:33;;;;;;;1999.90;999.90;;;4.10;99.90;;;;;;4988787;28;20092;-66
2022/11/12 04:50:00;;;;;;;1999.90;999.90;;;4.10;99.90;;;;;;4989882;28;20132;-66
2022/11/12 04:52:27;;;;;;;1999.90;999.90;;;4.00;99.90;;;;;;4981648;28;20414;-66
2022/11/12 04:54:53;;;;;;;1999.90;999.90;;;4.00;99.90;;;;;;4980194;28;20038;-66
2022/11/12 04:57:18;;;;;;;1999.90;999.90;;;3.90;99.90;;;;;;4997728;28;20050;-66
2022/11/12 04:59:44;;;;;;;1999.90;999.90;;;3.90;99.90;;;;;;4984774;28;20045;-66
2022/11/12 05:02:10;;;;;;;1999.90;999.90;;;4.00;99.90;;;;;;4984759;28;20050;-66
2022/11/12 05:04:36;;;;;;;1999.90;999.90;;;4.10;99.90;;;;;;4985203;28;20046;-66
2022/11/12 05:07:01;;;;;;;1999.90;999.90;;;4.20;99.90;;;;;;4972020;28;20451;-66
2022/11/12 05:09:28;;;;;;;1999.90;999.90;;;4.30;99.90;;;;;;4986136;28;20050;-66
2022/11/12 05:11:54;;;;;;;1999.90;999.90;;;4.40;99.90;;;;;;4990273;28;20061;-66
2022/11/12 05:14:21;;;;;;;1999.90;999.90;;;4.60;99.90;;;;;;4989905;28;20046;-66
2022/11/12 05:16:47;;;;;;;1999.90;999.90;;;4.70;99.90;;;;;;4985673;28;20045;-66
2022/11/12 05:19:13;;;;;;;1999.90;999.90;;;4.80;99.90;;;;;;5001044;28;20053;-66
2022/11/12 05:24:24;;;;;;;1999.90;999.90;;;5.10;99.90;;;;;;4986440;28;20041;-66
2022/11/12 05:26:49;;;;;;;1999.90;999.90;;;5.20;99.90;;;;;;4972899;28;20092;-66
2022/11/12 05:29:15;;;;;;;1999.90;999.90;;;5.20;99.90;;;;;;5007196;28;20116;-66
2022/11/12 05:31:41;;;;;;;1999.90;999.90;;;5.30;99.90;;;;;;4972966;28;20050;-66
2022/11/12 05:34:07;;;;;;;1999.90;999.90;;;5.30;99.90;;;;;;4981036;28;20038;-67
2022/11/12 05:36:33;;;;;;;1999.90;999.90;;;5.40;99.90;;;;;;4999245;28;20048;-67
2022/11/12 05:38:58;;;;;;;1999.90;999.90;;;5.40;99.90;;;;;;4981083;28;20048;-66
2022/11/12 05:41:24;;;;;;;1999.90;999.90;;;5.40;99.90;;;;;;4990184;28;20407;-66
2022/11/12 05:43:50;;;;;;;1999.90;999.90;;;5.40;99.90;;;;;;4962229;28;20046;-66
2022/11/12 05:46:15;;;;;;;1999.90;999.90;;;5.30;99.90;;;;;;4963473;28;20375;-67
2022/11/12 05:48:41;;;;;;;1999.90;999.90;;;5.20;99.90;;;;;;4982211;28;20042;-67
2022/11/12 05:51:06;;;;;;;1999.90;999.90;;;5.20;99.90;;;;;;4989484;28;20054;-66
2022/11/12 05:53:32;;;;;;;1999.90;999.90;;;5.10;99.90;;;;;;4983817;28;20045;-66
2022/11/12 05:56:02;;;;;;;1999.90;999.90;;;5.00;99.90;;;;;;4989977;28;20100;-66
2022/11/12 05:58:28;;;;;;;1999.90;999.90;;;4.90;99.90;;;;;;4973592;28;20049;-66
2022/11/12 06:00:53;;;;;;;1999.90;999.90;;;4.90;99.90;;;;;;5003691;28;20368;-67
2022/11/12 06:03:19;;;;;;;1999.90;999.90;;;4.80;99.90;;;;;;4984924;28;20053;-67
2022/11/12 06:05:44;;;;;;;1999.90;999.90;;;4.80;99.90;;;;;;4969120;28;20106;-66
2022/11/12 06:08:10;;;;;;;1999.90;999.90;;;4.80;99.90;;;;;;5003865;28;20053;-66
2022/11/12 06:10:35;;;;;;;1999.90;999.90;;;4.90;99.90;;;;;;4977478;28;20505;-66
2022/11/12 06:13:01;;;;;;;1999.90;999.90;;;4.90;99.90;;;;;;4993213;28;20408;-66
2022/11/12 06:15:26;;;;;;;1999.90;999.90;;;4.90;99.90;;;;;;5004912;28;20391;-67
2022/11/12 06:17:53;;;;;;;1999.90;999.90;;;5.10;99.90;;;;;;4975981;28;20042;-66
2022/11/12 06:20:19;;;;;;;1999.90;999.90;;;5.20;99.90;;;;;;4957589;28;20041;-66
2022/11/12 06:22:45;;;;;;;1999.90;999.90;;;5.30;99.90;;;;;;5010404;28;20048;-67
2022/11/12 06:25:10;;;;;;;1999.90;999.90;;;5.40;99.90;;;;;;5009358;28;20136;-66
2022/11/12 06:27:36;;;;;;;1999.90;999.90;;;5.40;99.90;;;;;;5010459;28;20046;-66
2022/11/12 06:30:06;;;;;;;1999.90;999.90;;;5.50;99.90;;;;;;5010071;28;20063;-67
2022/11/12 06:32:32;;;;;;;1999.90;999.90;;;5.50;99.90;;;;;;5009742;28;20109;-66
2022/11/12 06:34:57;;;;;;;1999.90;999.90;;;5.60;99.90;;;;;;4988622;28;20458;-67
2022/11/12 06:37:23;;;;;;;1999.90;999.90;;;5.70;99.90;;;;;;4983616;28;20450;-67
2022/11/12 06:39:49;;;;;;;1999.90;999.90;;;5.70;99.90;;;;;;4992923;28;20355;-66
2022/11/12 06:42:15;;;;;;;1999.90;999.90;;;5.70;99.90;;;;;;4998238;28;20064;-67
2022/11/12 06:44:41;;;;;;;1999.90;999.90;;;5.70;99.90;;;;;;4993051;28;20053;-67
2022/11/12 06:47:06;;;;;;;1999.90;999.90;;;5.80;99.90;;;;;;5006575;28;20038;-67
2022/11/12 06:49:32;;;;;;;1999.90;999.90;;;5.80;99.90;;;;;;4969847;28;20049;-66
2022/11/12 06:51:57;;;;;;;1999.90;999.90;;;5.80;99.90;;;;;;4973753;28;20397;-67
2022/11/12 06:54:23;;;;;;;1999.90;999.90;;;5.80;99.90;;;;;;4990947;28;20078;-67
2022/11/12 06:56:49;;;;;;;1999.90;999.90;;;5.90;99.90;;;;;;5007412;28;20989;-67
2022/11/12 06:59:14;;;;;;;1999.90;999.90;;;5.90;99.90;;;;;;4988765;28;20116;-67
2022/11/12 07:01:40;;;;;;;1999.90;999.90;;;5.90;99.90;;;;;;5010223;28;20042;-67
2022/11/12 07:04:05;;;;;;;1999.90;999.90;;;6.00;99.90;;;;;;5009367;28;20050;-67
2022/11/12 07:06:32;;;;;;;1999.90;999.90;;;6.00;99.90;;;;;;5007275;28;20033;-66
2022/11/12 07:08:58;;;;;;;1999.90;999.90;;;6.00;99.90;;;;;;5010563;28;20097;-67
2022/11/12 07:11:23;;;;;;;1999.90;999.90;;;6.00;99.90;;;;;;4990877;28;20085;-67
2022/11/12 07:13:49;;;;;;;1999.90;999.90;;;6.00;99.90;;;;;;5009928;28;20054;-67
2022/11/12 07:16:17;;;;;;;1999.90;999.90;;;6.00;99.90;;;;;;4991926;28;20100;-66
2022/11/12 07:18:44;;;;;;;1999.90;999.90;;;6.10;99.90;;;;;;4992610;28;20263;-67
2022/11/12 07:21:11;;;;;;;1999.90;999.90;;;6.10;99.90;;;;;;4985818;28;20443;-67
2022/11/12 07:23:37;;;;;;;1999.90;999.90;;;6.10;99.90;;;;;;4991982;28;20049;-66
2022/11/12 07:26:11;;;;;;;1999.90;999.90;;;6.10;99.90;;;;;;4992400;28;20583;-66
2022/11/12 07:28:37;;;;;;;1999.90;999.90;;;6.10;99.90;;;;;;5006496;28;20045;-67
2022/11/12 07:31:05;;;;;;;1999.90;999.90;;;6.20;99.90;;;;;;5000265;28;20040;-66
2022/11/12 07:33:32;;;;;;;1999.90;999.90;;;6.10;99.90;;;;;;4990181;28;20475;-67
2022/11/12 07:36:00;;;;;;;1999.90;999.90;;;6.10;99.90;;;;;;4977784;28;20125;-66
2022/11/12 07:38:27;;;;;;;1999.90;999.90;;;6.20;99.90;;;;;;4991203;28;20038;-66
2022/11/12 07:41:05;;;;;;;1999.90;999.90;;;6.10;99.90;;;;;;4997714;28;20038;-67
2022/11/12 07:43:32;;;;;;;1999.90;999.90;;;6.20;99.90;;;;;;5007645;28;20048;-67
2022/11/12 07:46:04;;;;;;;1999.90;999.90;;;6.20;99.90;;;;;;4990339;28;20065;-67
2022/11/12 07:48:30;;;;;;;1999.90;999.90;;;6.20;99.90;;;;;;5005072;28;20496;-66
2022/11/12 07:51:04;;;;;;;1999.90;999.90;;;6.20;99.90;;;;;;4991046;28;20559;-66
2022/11/12 07:53:30;;;;;;;1999.90;999.90;;;6.20;99.90;;;;;;5005988;28;20458;-66
2022/11/12 07:55:58;;;;;;;1999.90;999.90;;;6.20;99.90;;;;;;4977125;28;20038;-67
2022/11/12 07:58:25;;;;;;;1999.90;999.90;;;6.30;99.90;;;;;;4988159;28;20175;-66
2022/11/12 08:00:51;;;;;;;1999.90;999.90;;;6.30;99.90;;;;;;4988982;28;21539;-67
2022/11/12 08:03:17;;;;;;;1999.90;999.90;;;6.30;99.90;;;;;;4991011;28;20045;-66
2022/11/12 08:05:43;;;;;;;1999.90;999.90;;;6.30;99.90;;;;;;4990894;28;20112;-66
2022/11/12 08:08:09;;;;;;;1999.90;999.90;;;6.40;99.90;;;;;;4987993;28;20169;-66
2022/11/12 08:10:35;;;;;;;1999.90;999.90;;;6.50;99.90;;;;;;4989102;28;20117;-66
2022/11/12 08:13:01;;;;;;;1999.90;999.90;;;6.60;99.90;;;;;;4989506;28;20097;-66
2022/11/12 08:15:26;;;;;;;1999.90;999.90;;;6.60;99.90;;;;;;5008311;28;20125;-67
2022/11/12 08:17:52;;;;;;;1999.90;999.90;;;6.70;99.90;;;;;;4987300;28;20042;-67
2022/11/12 08:20:17;;;;;;;1999.90;999.90;;;6.80;99.90;;;;;;5000238;28;20442;-67
2022/11/12 08:22:43;;;;;;;1999.90;999.90;;;6.90;99.90;;;;;;5006854;28;20129;-67
2022/11/12 08:25:08;;;;;;;1999.90;999.90;;;6.90;99.90;;;;;;5006847;28;20041;-67
2022/11/12 08:27:34;;;;;;;1999.90;999.90;;;7.10;99.90;;;;;;4990715;28;20057;-68
2022/11/12 08:30:01;;;;;;;1999.90;999.90;;;7.10;99.90;;;;;;4971293;28;20073;-67
2022/11/12 08:32:26;;;;;;;1999.90;999.90;;;7.20;99.90;;;;;;4987459;28;20058;-67
2022/11/12 08:34:52;;;;;;;1999.90;999.90;;;7.30;99.90;;;;;;4990151;28;20046;-67
2022/11/12 08:37:17;;;;;;;1999.90;999.90;;;7.40;99.90;;;;;;4989714;28;20037;-67
2022/11/12 08:39:43;;;;;;;1999.90;999.90;;;7.40;99.90;;;;;;4971551;28;20050;-67
2022/11/12 08:42:08;;;;;;;1999.90;999.90;;;7.50;99.90;;;;;;4974128;28;20034;-67
2022/11/12 08:44:34;;;;;;;1999.90;999.90;;;7.60;99.90;;;;;;4989896;28;20046;-68
2022/11/12 08:47:00;;;;;;;1999.90;999.90;;;7.60;99.90;;;;;;4988689;28;20041;-67
2022/11/12 08:49:25;;;;;;;1999.90;999.90;;;7.60;99.90;;;;;;4977917;28;20034;-67
2022/11/12 08:51:51;;;;;;;1999.90;999.90;;;7.70;99.90;;;;;;4988062;28;20037;-67
2022/11/12 08:54:16;;;;;;;1999.90;999.90;;;7.70;99.90;;;;;;4978765;28;20052;-67
2022/11/12 08:56:42;;;;;;;1999.90;999.90;;;7.80;99.90;;;;;;4987781;28;20099;-67
2022/11/12 08:59:07;;;;;;;1999.90;999.90;;;7.80;99.90;;;;;;4975576;28;20140;-67
2022/11/12 09:01:33;;;;;;;1999.90;999.90;;;7.80;99.90;;;;;;4972572;28;20524;-67
2022/11/12 09:03:59;;;;;;;1999.90;999.90;;;7.90;99.90;;;;;;4990276;28;20033;-67
2022/11/12 09:06:24;;;;;;;1999.90;999.90;;;7.90;99.90;;;;;;4988376;28;20053;-67
2022/11/12 09:08:50;;;;;;;1999.90;999.90;;;8.00;99.90;;;;;;4990909;28;20070;-67
2022/11/12 09:11:16;;;;;;;1999.90;999.90;;;8.00;99.90;;;;;;4983253;28;20084;-67
2022/11/12 09:13:42;;;;;;;1999.90;999.90;;;8.00;99.90;;;;;;5006939;28;20042;-67
2022/11/12 09:16:09;;;;;;;1999.90;999.90;;;8.00;99.90;;;;;;4971299;28;20091;-67
2022/11/12 09:18:35;;;;;;;1999.90;999.90;;;8.10;99.90;;;;;;4993614;28;20392;-67
2022/11/12 09:21:11;;;;;;;1999.90;999.90;;;8.10;99.90;;;;;;4977408;28;20160;-67
2022/11/12 09:23:37;;;;;;;1999.90;999.90;;;8.10;99.90;;;;;;4984583;28;20402;-67
2022/11/12 09:26:03;;;;;;;1999.90;999.90;;;8.10;99.90;;;;;;4988722;28;20034;-67
2022/11/12 09:28:29;;;;;;;1999.90;999.90;;;8.20;99.90;;;;;;4987004;28;20394;-67
2022/11/12 09:30:55;;;;;;;1999.90;999.90;;;8.20;99.90;;;;;;4985861;28;20053;-67
2022/11/12 09:33:23;;;;;;;1999.90;999.90;;;8.20;99.90;;;;;;4969981;28;20042;-67
2022/11/12 09:35:50;;;;;;;1999.90;999.90;;;8.20;99.90;;;;;;4987601;28;20387;-68
2022/11/12 09:38:16;;;;;;;1999.90;999.90;;;8.20;99.90;;;;;;4989603;28;20049;-67
2022/11/12 09:40:51;;;;;;;1999.90;999.90;;;8.20;99.90;;;;;;4988307;28;20671;-67
2022/11/12 09:43:26;;;;;;;1999.90;999.90;;;8.30;99.90;;;;;;4991147;28;20049;-67
2022/11/12 09:45:53;;;;;;;1999.90;999.90;;;8.30;99.90;;;;;;4993973;28;20057;-67
2022/11/12 09:48:33;;;;;;;1999.90;999.90;;;8.30;99.90;;;;;;5010729;28;20069;-67
2022/11/12 09:51:20;;;;;;;1999.90;999.90;;;8.30;99.90;;;;;;4992039;28;20038;-68
2022/11/12 09:53:53;;;;;;;1999.90;999.90;;;8.30;99.90;;;;;;5004114;28;20494;-67
2022/11/12 09:56:22;;;;;;;1999.90;999.90;;;8.20;99.90;;;;;;5010186;28;20093;-67
2022/11/12 09:58:49;;;;;;;1999.90;999.90;;;8.20;99.90;;;;;;5002839;28;20351;-67
2022/11/12 10:01:37;;;;;;;1999.90;999.90;;;8.20;99.90;;;;;;4991537;28;20038;-67
2022/11/12 10:04:21;;;;;;;1999.90;999.90;;;8.20;99.90;;;;;;4992790;28;20090;-67
2022/11/12 10:06:57;;;;;;;1999.90;999.90;;;8.20;99.90;;;;;;4989852;28;20462;-67
2022/11/12 10:09:35;;;;;;;1999.90;999.90;;;8.30;99.90;;;;;;4987666;28;20481;-67
2022/11/12 10:12:31;;;;;;;1999.90;999.90;;;8.30;99.90;;;;;;4987389;28;20054;-67
2022/11/12 10:18:22;;;;;;;1999.90;999.90;;;8.30;99.90;;;;;;5000567;28;20054;-67
2022/11/12 10:20:54;;;;;;;1999.90;999.90;;;8.40;99.90;;;;;;4967272;28;20046;-67
2022/11/12 10:23:47;;;;;;;1999.90;999.90;;;8.40;99.90;;;;;;4979713;28;20097;-67
2022/11/12 10:26:15;;;;;;;1999.90;999.90;;;8.40;99.90;;;;;;4989599;28;20560;-67
2022/11/12 10:28:58;;;;;;;1999.90;999.90;;;8.40;99.90;;;;;;4987282;28;20049;-67
2022/11/12 10:31:23;;;;;;;1999.90;999.90;;;8.40;99.90;;;;;;5009306;28;20042;-67
2022/11/12 10:33:49;;;;;;;1999.90;999.90;;;8.40;99.90;;;;;;4974274;28;20045;-67
2022/11/12 10:36:25;;;;;;;1999.90;999.90;;;8.40;99.90;;;;;;5009400;28;20041;-67
2022/11/12 10:38:53;;;;;;;1999.90;999.90;;;8.40;99.90;;;;;;4973950;28;20050;-67
2022/11/12 10:41:31;;;;;;;1999.90;999.90;;;8.40;99.90;;;;;;4988951;28;20061;-67
2022/11/12 10:44:01;;;;;;;1999.90;999.90;;;8.50;99.90;;;;;;4992895;28;20151;-67
2022/11/12 10:46:29;;;;;;;1999.90;999.90;;;8.50;99.90;;;;;;4992746;28;20030;-67
2022/11/12 10:49:22;;;;;;;1999.90;999.90;;;8.60;99.90;;;;;;4987779;28;20505;-67
2022/11/12 10:51:56;;;;;;;1999.90;999.90;;;8.60;99.90;;;;;;5008740;28;20406;-67
2022/11/12 10:54:34;;;;;;;1999.90;999.90;;;8.60;99.90;;;;;;4983341;28;20494;-67
2022/11/12 10:57:29;;;;;;;1999.90;999.90;;;8.60;99.90;;;;;;4981595;28;20089;-67
2022/11/12 11:00:16;;;;;;;1999.90;999.90;;;8.60;99.90;;;;;;4957560;28;20403;-67
2022/11/12 11:02:50;;;;;;;1999.90;999.90;;;8.60;99.90;;;;;;5002597;28;20156;-67
2022/11/12 11:05:59;;;;;;;1999.90;999.90;;;8.60;99.90;;;;;;4986326;28;20353;-67
2022/11/12 11:08:34;;;;;;;1999.90;999.90;;;8.70;99.90;;;;;;4985552;28;20054;-67
2022/11/12 11:11:29;;;;;;;1999.90;999.90;;;8.70;99.90;;;;;;4981086;28;20059;-67
2022/11/12 11:14:14;;;;;;;1999.90;999.90;;;8.70;99.90;;;;;;4983258;28;20069;-68
2022/11/12 11:16:52;;;;;;;1999.90;999.90;;;8.70;99.90;;;;;;4983301;28;20053;-67
2022/11/12 11:19:18;;;;;;;1999.90;999.90;;;8.80;99.90;;;;;;4985490;28;20056;-67
2022/11/12 11:21:56;;;;;;;1999.90;999.90;;;8.80;99.90;;;;;;4983724;28;20043;-67
2022/11/12 11:24:42;;;;;;;1999.90;999.90;;;8.80;99.90;;;;;;4995652;28;20113;-67
2022/11/12 11:27:43;;;;;;;1999.90;999.90;;;8.80;99.90;;;;;;4983326;28;20039;-67
2022/11/12 11:30:18;;;;;;;1999.90;999.90;;;8.90;99.90;;;;;;4983301;28;20046;-67
2022/11/12 11:33:11;;;;;;;1999.90;999.90;;;8.90;99.90;;;;;;4984504;28;20092;-67
2022/11/12 11:36:38;;;;;;;1999.90;999.90;;;8.90;99.90;;;;;;4980393;28;20044;-67
2022/11/12 11:39:26;;;;;;;1999.90;999.90;;;8.90;99.90;;;;;;4923436;29;20044;-67
2022/11/12 11:42:14;;;;;;;1999.90;999.90;;;9.00;99.90;;;;;;4959611;28;20064;-67
2022/11/12 11:44:58;;;;;;;1999.90;999.90;;;9.00;99.90;;;;;;4987347;28;20502;-68
2022/11/12 11:47:48;;;;;;;1999.90;999.90;;;9.10;99.90;;;;;;4979531;28;20054;-67
2022/11/12 11:50:34;;;;;;;1999.90;999.90;;;9.10;99.90;;;;;;4967395;28;20714;-67
2022/11/12 11:53:21;;;;;;;1999.90;999.90;;;9.10;99.90;;;;;;4981233;28;20430;-67
2022/11/12 11:55:55;;;;;;;1999.90;999.90;;;9.20;99.90;;;;;;4966903;28;20131;-67
2022/11/12 11:58:41;;;;;;;1999.90;999.90;;;9.20;99.90;;;;;;4982070;28;20050;-68
2022/11/12 12:01:36;;;;;;;1999.90;999.90;;;9.30;99.90;;;;;;4984499;28;20057;-67
2022/11/12 12:04:39;;;;;;;1999.90;999.90;;;9.30;99.90;;;;;;4997359;28;20101;-67
2022/11/12 12:07:25;;;;;;;1999.90;999.90;;;9.30;99.90;;;;;;4965028;28;20043;-67
2022/11/12 12:10:13;;;;;;;1999.90;999.90;;;9.40;99.90;;;;;;4972425;28;20455;-67
2022/11/12 12:13:07;;;;;;;1999.90;999.90;;;9.50;99.90;;;;;;4982178;28;20142;-67
2022/11/12 12:16:05;;;;;;;1999.90;999.90;;;9.60;99.90;;;;;;4986002;28;20042;-67
2022/11/12 12:18:45;;;;;;;1999.90;999.90;;;9.70;99.90;;;;;;4983946;28;20294;-68
2022/11/12 12:21:19;;;;;;;1999.90;999.90;;;9.60;99.90;;;;;;4981200;28;20074;-67
2022/11/12 12:23:45;;;;;;;1999.90;999.90;;;9.60;99.90;;;;;;4986583;28;20042;-67
2022/11/12 12:26:16;;;;;;;1999.90;999.90;;;9.50;99.90;;;;;;4982154;28;20345;-67
2022/11/12 12:28:53;;;;;;;1999.90;999.90;;;9.50;99.90;;;;;;4971199;28;20050;-67
2022/11/12 12:31:24;;;;;;;1999.90;999.90;;;9.50;99.90;;;;;;4981974;28;20125;-67
2022/11/12 12:33:55;;;;;;;1999.90;999.90;;;9.40;99.90;;;;;;4987352;28;20541;-67
2022/11/12 12:36:30;;;;;;;1999.90;999.90;;;9.40;99.90;;;;;;4988105;28;20050;-67
2022/11/12 12:39:18;;;;;;;1999.90;999.90;;;9.50;99.90;;;;;;4987317;28;20049;-67
2022/11/12 12:42:16;;;;;;;1999.90;999.90;;;9.60;99.90;;;;;;4987172;28;20046;-68
2022/11/12 12:45:04;;;;;;;1999.90;999.90;;;9.70;99.90;;;;;;4986953;28;20484;-67
2022/11/12 12:47:39;;;;;;;1999.90;999.90;;;9.80;99.90;;;;;;4969400;28;20492;-67
2022/11/12 12:50:10;;;;;;;1999.90;999.90;;;9.90;99.90;;;;;;4968774;28;20112;-67